• Join FlightAware (Why Join?)
  • Login
  • US Flag 
12:28PM EDT


 

Airport Tracker/Info


-or-


 

Live Flight TrackerFlight Track Log ✈ N950ME ✈ 21-Jul-2013 ✈ KRYY - KHEF

Flight Track Log - Related Links

Times and Time Zones

All times are in EDT time to prevent confusion due to time zone crossing. See the N950ME flight status page for this flight to view local times or setup timezone preferences in your user account.

Time Position Orientation Groundspeed Altitude Reporting Facility
EDT Latitude Longitude Course Direction KTS MPH feet Rate Location/Type
12:18PM 34.0667 -84.6167 North 81 93 2,600  Level Atlanta TRACON
12:19PM 34.0850 -84.6156 North 86 99 2,800 300 Climbing Atlanta Center
12:20PM 34.1039 -84.6083 18° North 86 99 3,200 420 Climbing Atlanta Center
12:21PM 34.1247 -84.5983 22° Northeast 98 113 3,700 420 Climbing Atlanta Center
12:22PM 34.1478 -84.5836 28° Northeast 92 106 4,100 360 Climbing Atlanta Center
12:23PM 34.1708 -84.5711 24° Northeast 87 100 4,500 360 Climbing Atlanta Center
12:24PM 34.1919 -84.5561 30° Northeast 87 100 4,900 360 Climbing Atlanta Center
12:25PM 34.2147 -84.5411 29° Northeast 87 100 5,300 300 Climbing Atlanta Center
12:26PM 34.2378 -84.5264 28° Northeast 87 100 5,600 300 Climbing Atlanta Center
12:27PM 34.2589 -84.5114 30° Northeast 87 100 5,900 180 Climbing Atlanta Center
12:28PM 34.2861 -84.4964 24° Northeast 97 112 6,000  Climbing Atlanta Center
12:29PM 34.3111 -84.4789 30° Northeast 102 117 6,000  Level Atlanta Center
12:30PM 34.3403 -84.4589 30° Northeast 102 117 6,000 240 Level Atlanta Center
12:31PM 34.3656 -84.4439 26° Northeast 102 117 6,500 360 Climbing Atlanta Center
12:32PM 34.3842 -84.4314 29° Northeast 92 106 6,800 240 Climbing Atlanta Center
12:33PM 34.4094 -84.4139 30° Northeast 87 100 7,000 60 Climbing Atlanta Center
12:34PM 34.4325 -84.3964 32° Northeast 99 114 7,000  Level Atlanta Center
12:35PM 34.4575 -84.3689 42° Northeast 111 128 7,000  Level Atlanta Center
12:36PM 34.4783 -84.3411 48° Northeast 111 128 7,000  Level Atlanta Center
12:37PM 34.4994 -84.3083 52° Northeast 111 128 7,000  Level Atlanta Center
12:38PM 34.5203 -84.2783 50° Northeast 111 128 7,000  Level Atlanta Center
12:39PM 34.5414 -84.2481 50° Northeast 111 128 7,000  Level Atlanta Center
12:40PM 34.5622 -84.2153 52° Northeast 106 122 7,000  Level Atlanta Center
12:41PM 34.5853 -84.1878 44° Northeast 113 130 7,000  Level Atlanta Center
12:42PM 34.6039 -84.1550 55° Northeast 113 130 7,000  Level Atlanta Center
12:43PM 34.6269 -84.1272 45° Northeast 113 130 7,000  Level Atlanta Center
12:44PM 34.6458 -84.0944 55° Northeast 113 130 7,000  Level Atlanta Center
12:45PM 34.6667 -84.0717 42° Northeast 107 123 7,000  Level Atlanta Center
12:46PM 34.6875 -84.0414 50° Northeast 107 123 7,000  Level Atlanta Center
12:47PM 34.7083 -84.0111 50° Northeast 107 123 7,000  Level Atlanta Center
12:48PM 34.7292 -83.9806 50° Northeast 107 123 7,000  Level Atlanta Center
12:49PM 34.7481 -83.9503 53° Northeast 107 123 7,000  Level Atlanta Center
12:50PM 34.7689 -83.9200 50° Northeast 107 123 7,100 180 Climbing Atlanta Center
12:51PM 34.7875 -83.8894 53° Northeast 107 123 7,400 300 Climbing Atlanta Center
12:52PM 34.8022 -83.8617 57° Northeast 107 123 7,700 240 Climbing Atlanta Center
12:53PM 34.8189 -83.8364 51° Northeast 97 112 7,900 60 Climbing Atlanta Center
12:54PM 34.8356 -83.8111 51° Northeast 97 112 7,900  Level Atlanta Center
12:55PM 34.8583 -83.7756 52° Northeast 103 119 7,900  Level Atlanta Center
12:56PM 34.8769 -83.7425 56° Northeast 110 127 7,900  Level Atlanta Center
12:57PM 34.8978 -83.7119 50° Northeast 117 135 7,900  Level Atlanta Center
12:58PM 34.9208 -83.6842 45° Northeast 112 129 7,900  Level Atlanta Center
12:59PM 34.9394 -83.6611 45° Northeast 107 123 7,900  Level Atlanta Center
01:00PM 34.9581 -83.6308 53° Northeast 107 123 7,900  Level Atlanta Center
01:01PM 34.9808 -83.6003 48° Northeast 107 123 7,900  Level Atlanta Center
01:02PM 34.9997 -83.5722 51° Northeast 107 123 7,900  Level Atlanta Center
01:03PM 35.0225 -83.5342 54° Northeast 112 129 7,900  Level Atlanta Center
01:04PM 35.0475 -83.5086 40° Northeast 112 129 8,000  Climbing Atlanta Center
01:05PM 35.0703 -83.4831 43° Northeast 112 129 8,000 120 Level Atlanta Center
01:06PM 35.0889 -83.4575 48° Northeast 112 129 8,300 180 Climbing Atlanta Center
01:07PM 35.1033 -83.4319 55° Northeast 99 114 8,400 180 Climbing Atlanta Center
01:08PM 35.1178 -83.4089 53° Northeast 88 101 8,700 240 Climbing Atlanta Center
01:09PM 35.1322 -83.3886 49° Northeast 82 94 8,900 60 Climbing Atlanta Center
01:10PM 35.1489 -83.3631 51° Northeast 82 94 8,900  Level Atlanta Center
01:11PM 35.1717 -83.3297 50° Northeast 96 110 9,000  Climbing Atlanta Center
01:12PM 35.1903 -83.2967 55° Northeast 110 127 8,900 -60 Descending Atlanta Center
01:13PM 35.2131 -83.2711 43° Northeast 110 127 8,900  Level Atlanta Center
01:14PM 35.2317 -83.2403 54° Northeast 110 127 8,900  Level Atlanta Center
01:15PM 35.2564 -83.2019 52° Northeast 119 137 8,900  Level Atlanta Center
01:16PM 35.2769 -83.1711 51° Northeast 119 137 8,900  Level Atlanta Center
01:17PM 35.2978 -83.1431 48° Northeast 114 131 8,900  Level Atlanta Center
01:18PM 35.3206 -83.1122 48° Northeast 109 125 8,900  Level Atlanta Center
01:19PM 35.3389 -83.0789 56° Northeast 109 125 8,900  Level Atlanta Center
01:20PM 35.3617 -83.0506 45° Northeast 109 125 8,900  Level Atlanta Center
01:21PM 35.3864 -83.0222 43° Northeast 109 125 8,900  Level Atlanta Center
01:22PM 35.4114 -82.9939 43° Northeast 119 137 8,900  Level Atlanta Center
01:23PM 35.4319 -82.9656 48° Northeast 119 137 8,900  Level Atlanta Center
01:24PM 35.4525 -82.9322 53° Northeast 119 137 9,000  Climbing Atlanta Center
01:25PM 35.4753 -82.9014 48° Northeast 119 137 8,900 -60 Descending Atlanta Center
01:26PM 35.4958 -82.8731 48° Northeast 113 130 8,900  Level Atlanta Center
01:27PM 35.5183 -82.8419 48° Northeast 118 136 8,900  Level Atlanta Center
01:28PM 35.5389 -82.8111 51° Northeast 118 136 8,900  Level Atlanta Center
01:29PM 35.5511 -82.7753 67° East 113 130 8,900  Level Atlanta Center
01:30PM 35.5633 -82.7392 67° East 113 130 8,900  Level Atlanta Center
01:31PM 35.5711 -82.6983 77° East 113 130 8,900  Level Atlanta Center
01:33PM 35.5966 -82.6468 51° Northeast  Level FlightAware Approximate
01:37PM 35.7003 -82.5019 51° Northeast 115 132 8,900  Level Atlanta Center
01:38PM 35.7250 -82.4758 41° Northeast 115 132 8,900  Level Atlanta Center
01:39PM 35.7433 -82.4472 52° Northeast 126 145 8,900  Level Atlanta Center
01:40PM 35.7265 -82.4522 51° Northeast  Level FlightAware Approximate
01:40PM 35.7658 -82.4186 46° Northeast 121 139 8,900  Level Atlanta Center
01:41PM 35.7450 -82.4244 51° Northeast  Level FlightAware Approximate
01:41PM 35.7842 -82.3850 56° Northeast 116 133 8,900  Level Atlanta Center
01:42PM 35.7635 -82.3966 51° Northeast  Level FlightAware Approximate
01:42PM 35.8069 -82.3539 48° Northeast 116 133 8,900  Level Atlanta Center
01:43PM 35.8272 -82.3228 51° Northeast 116 133 8,900  Level Atlanta Center
01:44PM 35.8519 -82.2967 41° Northeast 116 133 9,000  Climbing Atlanta Center
01:45PM 35.8744 -82.2653 48° Northeast 116 133 8,900 -60 Descending Atlanta Center
01:46PM 35.8950 -82.2367 48° Northeast 121 139 8,900  Level Atlanta Center
01:47PM 35.9172 -82.2056 49° Northeast 121 139 8,900  Level Atlanta Center
01:48PM 35.9378 -82.1742 51° Northeast 116 133 8,900  Level Atlanta Center
01:49PM 35.9622 -82.1378 50° Northeast 121 139 8,900  Level Atlanta Center
01:50PM 35.9825 -82.1064 51° Northeast 121 139 8,900  Level Atlanta Center
01:51PM 36.0050 -82.0725 51° Northeast 121 139 8,900  Level Atlanta Center
01:52PM 36.0275 -82.0464 43° Northeast 115 132 8,900  Level Atlanta Center
01:53PM 36.0564 -82.0225 34° Northeast 115 132 8,900  Level Atlanta Center
01:54PM 36.0808 -81.9961 41° Northeast 110 127 9,000  Climbing Atlanta Center
01:55PM 36.1053 -81.9647 46° Northeast 110 127 8,900  Descending Atlanta Center
01:56PM 36.1319 -81.9383 39° Northeast 117 135 9,000  Climbing Atlanta Center
01:57PM 36.1586 -81.9094 41° Northeast 122 140 8,900 -60 Descending Atlanta Center
01:58PM 36.1769 -81.8831 49° Northeast 122 140 8,900  Level Atlanta Center
01:59PM 36.1972 -81.8517 51° Northeast 117 135 9,000  Climbing Atlanta Center
02:00PM 36.2194 -81.8150 53° Northeast 117 135 8,900 -60 Descending Atlanta Center
02:01PM 36.2419 -81.7836 48° Northeast 122 140 8,900  Level Atlanta Center
02:02PM 36.2642 -81.7519 49° Northeast 122 140 9,000  Climbing Atlanta Center
02:03PM 36.2867 -81.7181 51° Northeast 117 135 8,900 -60 Descending Atlanta Center
02:04PM 36.3089 -81.6839 51° Northeast 117 135 8,900  Level Atlanta Center
02:05PM 36.3292 -81.6575 46° Northeast 117 135 8,900  Level Atlanta Center
02:06PM 36.3472 -81.6233 57° Northeast 117 135 8,900  Level Atlanta Center
02:07PM 36.3697 -81.5892 51° Northeast 117 135 8,900  Level Atlanta Center
02:08PM 36.3897 -81.5578 52° Northeast 117 135 8,900  Level Atlanta Center
02:09PM 36.4100 -81.5261 51° Northeast 117 135 8,900  Level Atlanta Center
02:10PM 36.4303 -81.4919 54° Northeast 117 135 8,900  Level Atlanta Center
02:11PM 36.4525 -81.4603 49° Northeast 117 135 8,900  Level Atlanta Center
02:12PM 36.4706 -81.4314 52° Northeast 117 135 9,000  Climbing Atlanta Center
02:13PM 36.4908 -81.3969 54° Northeast 117 135 8,900 -60 Descending Atlanta Center
02:14PM 36.5131 -81.3628 51° Northeast 112 129 8,900  Level Atlanta Center
02:15PM 36.5353 -81.3283 51° Northeast 112 129 8,900  Level Atlanta Center
02:16PM 36.5533 -81.2994 52° Northeast 112 129 8,900  Level Atlanta Center
02:17PM 36.5753 -81.2597 55° Northeast 107 123 8,900  Level Atlanta Center
02:18PM 36.5975 -81.2281 49° Northeast 112 129 8,900  Level Atlanta Center
02:19PM 36.6175 -81.1936 54° Northeast 112 129 8,900  Level Atlanta Center
02:20PM 36.6375 -81.1594 54° Northeast 112 129 8,900  Level Atlanta Center
02:21PM 36.6578 -81.1250 54° Northeast 107 123 8,900  Level Atlanta Center
02:22PM 36.6736 -81.0881 62° Northeast 116 133 8,900  Level Atlanta Center
02:23PM 36.6956 -81.0536 52° Northeast 121 139 8,900  Level Atlanta Center
02:24PM 36.7114 -81.0142 63° Northeast 121 139 9,000  Climbing Atlanta Center
02:25PM 36.7311 -80.9772 56° Northeast 121 139 8,900 -60 Descending Atlanta Center
02:26PM 36.7494 -80.9506 49° Northeast 115 132 8,900  Level Atlanta Center
02:27PM 36.7733 -80.9133 51° Northeast 115 132 8,900  Level Atlanta Center
02:28PM 36.7933 -80.8789 54° Northeast 115 132 8,900  Level Atlanta Center
02:29PM 36.8175 -80.8442 49° Northeast 115 132 8,900  Level Atlanta Center
02:30PM 36.8356 -80.8125 55° Northeast 115 132 8,900  Level Atlanta Center
02:31PM 36.8556 -80.7806 52° Northeast 115 132 8,900  Level Atlanta Center
02:32PM 36.8775 -80.7483 50° Northeast 115 132 8,900  Level Atlanta Center
02:34PM 36.9022 -80.7012 57° Northeast  Level FlightAware Approximate
02:41PM 37.0187 -80.4782 57° Northeast  Level FlightAware Approximate
02:42PM 37.0356 -80.4464 51° Northeast  Level FlightAware Approximate
02:43PM 37.0547 -80.4168 51° Northeast  Level FlightAware Approximate
02:44PM 37.0738 -80.3871 51° Northeast  Level FlightAware Approximate
02:45PM 37.0929 -80.3575 51° Northeast  Level FlightAware Approximate
02:46PM 37.1120 -80.3278 51° Northeast  Level FlightAware Approximate
02:47PM 37.1311 -80.2981 51° Northeast  Level FlightAware Approximate
02:48PM 37.1502 -80.2684 51° Northeast  Level FlightAware Approximate
02:49PM 37.1692 -80.2387 51° Northeast  Level FlightAware Approximate
02:50PM 37.1879 -80.2086 54° Northeast  Level FlightAware Approximate
02:51PM 37.2057 -80.1776 54° Northeast  Level FlightAware Approximate
02:52PM 37.2234 -80.1466 54° Northeast  Level FlightAware Approximate
02:53PM 37.2412 -80.1156 54° Northeast  Level FlightAware Approximate
02:54PM 37.2589 -80.0846 54° Northeast  Level FlightAware Approximate
02:55PM 37.2812 -80.0583 43° Northeast  Level FlightAware Approximate
02:56PM 37.3034 -80.0321 43° Northeast  Level FlightAware Approximate
02:57PM 37.3256 -80.0058 43° Northeast  Level FlightAware Approximate
02:58PM 37.3479 -79.9795 43° Northeast  Level FlightAware Approximate
02:59PM 37.3701 -79.9532 43° Northeast  Level FlightAware Approximate
03:00PM 37.3923 -79.9269 43° Northeast  Level FlightAware Approximate
03:01PM 37.4145 -79.9005 43° Northeast  Level FlightAware Approximate
03:02PM 37.4367 -79.8742 43° Northeast  Level FlightAware Approximate
03:02PM 37.5014 -79.7203 43° Northeast 123 142 8,900  Level Washington Center
03:03PM 37.4590 -79.8478 43° Northeast  Level FlightAware Approximate
03:03PM 37.5258 -79.6822 51° Northeast 123 142 8,900  Level Washington Center
03:04PM 37.4812 -79.8214 43° Northeast  Level FlightAware Approximate
03:04PM 37.5436 -79.6517 54° Northeast 138 159 8,900  Level Washington Center
03:05PM 37.5033 -79.7950 43° Northeast  Level FlightAware Approximate
03:05PM 37.5656 -79.6136 54° Northeast 126 145 8,900  Level Washington Center
03:06PM 37.5255 -79.7686 43° Northeast  Level FlightAware Approximate
03:06PM 37.5875 -79.5833 48° Northeast 126 145 8,900  Level Washington Center
03:07PM 37.6094 -79.5478 52° Northeast 121 139 8,900  Level Washington Center
03:08PM 37.6294 -79.5147 53° Northeast 121 139 8,900  Level Washington Center
03:09PM 37.6536 -79.4792 49° Northeast 121 139 8,900  Level Washington Center
03:10PM 37.6714 -79.4461 56° Northeast 121 139 8,900  Level Washington Center
03:11PM 37.6975 -79.4081 49° Northeast 121 139 8,900  Level Washington Center
03:12PM 37.7214 -79.3778 45° Northeast 121 139 9,000  Climbing Washington Center
03:13PM 37.7411 -79.3444 53° Northeast 121 139 9,000  Level Washington Center
03:14PM 37.7633 -79.3089 52° Northeast 126 145 9,000  Level Washington Center
03:15PM 37.7831 -79.2783 51° Northeast 126 145 9,000  Level Washington Center
03:16PM 37.8028 -79.2450 53° Northeast 121 139 9,000  Level Washington Center
03:17PM 37.8267 -79.2094 50° Northeast 121 139 9,000 -60 Level Washington Center
03:18PM 37.8464 -79.1789 51° Northeast 121 139 8,900 -60 Descending Washington Center
03:19PM 37.8706 -79.1406 51° Northeast 126 145 8,900  Level Washington Center
03:20PM 37.8903 -79.1100 51° Northeast 121 139 8,900  Level Washington Center
03:21PM 37.9142 -79.0767 48° Northeast 116 133 8,900  Level Washington Center
03:22PM 37.9358 -79.0436 50° Northeast 116 133 8,900  Level Washington Center
03:24PM 37.9667 -78.9833 57° Northeast 124 143 8,900  Level Potomac TRACON
03:25PM 38.0000 -78.9500 38° Northeast 120 138 8,900  Level Potomac TRACON
03:26PM 38.0167 -78.9167 58° Northeast 120 138 8,900  Level Potomac TRACON
03:27PM 38.0333 -78.8833 58° Northeast 125 144 9,000  Climbing Potomac TRACON
03:28PM 38.0667 -78.8500 38° Northeast 126 145 9,000  Level Potomac TRACON
03:29PM 38.0833 -78.8167 58° Northeast 130 150 9,000 -60 Level Potomac TRACON
03:30PM 38.1000 -78.8000 38° Northeast 134 154 8,900 -60 Descending Potomac TRACON
03:31PM 38.1333 -78.7667 38° Northeast 124 143 8,900  Level Potomac TRACON
03:32PM 38.1500 -78.7167 67° East 124 143 8,900  Level Potomac TRACON
03:33PM 38.1500 -78.6667 90° East 132 152 8,900  Level Potomac TRACON
03:34PM 38.1500 -78.6333 90° East 125 144 8,900 -60 Level Potomac TRACON
03:35PM 38.1667 -78.5833 67° East 129 148 8,800  Descending Potomac TRACON
03:36PM 38.1500 -78.5500 122° Southeast 116 133 8,900  Climbing Potomac TRACON
03:36PM 38.1333 -78.5167 122° Southeast 127 146 8,800 -60 Descending Potomac TRACON
03:37PM 38.1167 -78.4833 122° Southeast 125 144 8,800  Level Potomac TRACON
03:38PM 38.1000 -78.4500 122° Southeast 122 140 8,800  Level Potomac TRACON
03:39PM 38.0833 -78.4167 122° Southeast 115 132 8,800  Level Potomac TRACON
03:40PM 38.0833 -78.3667 90° East 124 143 8,800  Level Potomac TRACON
03:41PM 38.0833 -78.3333 90° East 123 142 8,800  Level Potomac TRACON
03:42PM 38.0833 -78.3000 90° East 132 152 8,900  Climbing Potomac TRACON
03:43PM 38.1000 -78.2500 67° East 120 138 8,800 -60 Descending Potomac TRACON
03:44PM 38.1167 -78.2167 58° Northeast 125 144 8,800  Level Potomac TRACON
03:45PM 38.1333 -78.1833 58° Northeast 116 133 8,800  Level Potomac TRACON
03:46PM 38.1333 -78.1333 90° East 123 142 8,900 60 Climbing Potomac TRACON
03:47PM 38.1333 -78.1000 90° East 126 145 9,000  Climbing Potomac TRACON
03:48PM 38.1500 -78.0667 58° Northeast 121 139 8,900 -120 Descending Potomac TRACON
03:49PM 38.1833 -78.0333 38° Northeast 116 133 8,800 -60 Descending Potomac TRACON
03:50PM 38.2000 -78.0000 58° Northeast 118 136 8,800  Level Potomac TRACON
03:51PM 38.2167 -77.9667 58° Northeast 118 136 8,800 -300 Level Potomac TRACON
03:52PM 38.2333 -77.9333 58° Northeast 142 163 8,200 -660 Descending Potomac TRACON
03:53PM 38.2667 -77.9000 38° Northeast 147 169 7,500 -780 Descending Potomac TRACON
03:54PM 38.3000 -77.8500 50° Northeast 150 173 6,700 -840 Descending Potomac TRACON
03:55PM 38.3167 -77.8167 57° Northeast 147 169 5,900 -780 Descending Potomac TRACON
03:56PM 38.3500 -77.7833 38° Northeast 143 165 5,200 -540 Descending Potomac TRACON
03:57PM 38.3667 -77.7500 57° Northeast 127 146 4,900 -180 Descending Potomac TRACON
03:58PM 38.4000 -77.7167 38° Northeast 126 145 4,900  Level Potomac TRACON
03:59PM 38.4167 -77.6833 57° Northeast 125 144 4,900 -300 Level Potomac TRACON
04:00PM 38.4333 -77.6333 67° East 134 154 4,300 -540 Descending Potomac TRACON
04:01PM 38.4333 -77.6000 90° East 133 153 3,900 -240 Descending Potomac TRACON
04:02PM 38.4500 -77.5500 67° East 117 135 3,900  Level Potomac TRACON
04:03PM 38.4500 -77.5167 90° East 117 135 3,900  Level Potomac TRACON
04:04PM 38.4667 -77.4667 67° East 120 138 3,900  Level Potomac TRACON
04:05PM 38.4667 -77.4333 90° East 123 142 3,900 -420 Level Potomac TRACON
04:06PM 38.5000 -77.4000 38° Northeast 139 160 3,100 -540 Descending Potomac TRACON
04:07PM 38.5167 -77.3667 57° Northeast 124 143 2,900 -120 Descending Potomac TRACON
04:08PM 38.5500 -77.3500 21° North 117 135 2,900  Level Potomac TRACON
04:09PM 38.5833 -77.3500 360° North 113 130 2,900 -300 Level Potomac TRACON
04:10PM 38.6000 -77.3833 303° West 131 151 2,300 -600 Descending Potomac TRACON
04:11PM 38.6333 -77.4167 322° Northwest 123 142 1,800 -420 Descending Potomac TRACON
04:12PM 38.6667 -77.4500 322° Northwest 120 138 1,500 -360 Descending Potomac TRACON
04:13PM 38.6833 -77.4667 322° Northwest 114 131 1,100 -540 Descending Potomac TRACON
04:14PM 38.7000 -77.5000 303° West 102 117 500 -600 Descending Potomac TRACON
04:16PM 38.7167 -77.5000 340° North  Level FlightAware Approximate
04:23PM 38.7210 -77.5151 340° North  Level Estimated
04:24PM 38.7210 -77.5151 340° North  Level Estimated
04:25PM 38.7210 -77.5151 340° North  Level Estimated
04:26PM 38.7210 -77.5151 340° North  Level Estimated